Time;durP1;ratioP1;P1;durP2;ratioP2;P2;SDS_P1;SDS_P2;PMS_P1;PMS_P2;Temp;Humidity;BMP_temperature;BMP_pressure;BME280_temperature;BME280_humidity;BME280_pressure;Samples;Min_cycle;Max_cycle;Signal;HPM_P1;HPM_P2
2021/04/29 00:00:31;;;;;;;3.40;2.90;;;16.70;64.50;;;;;;5091276;28;20276;-69
2021/04/29 00:02:57;;;;;;;3.15;2.85;;;16.60;64.40;;;;;;5090371;28;20645;-69
2021/04/29 00:05:27;;;;;;;2.47;2.28;;;16.70;64.60;;;;;;5110330;28;20217;-69
2021/04/29 00:07:53;;;;;;;3.22;2.92;;;16.60;64.60;;;;;;5097492;28;20253;-69
2021/04/29 00:10:23;;;;;;;3.75;3.40;;;16.60;64.70;;;;;;5091786;28;20197;-70
2021/04/29 00:12:50;;;;;;;3.40;2.63;;;16.60;64.80;;;;;;5102633;28;20554;-69
2021/04/29 00:15:17;;;;;;;4.20;2.83;;;16.60;64.90;;;;;;5097709;28;20213;-69
2021/04/29 00:17:44;;;;;;;2.83;2.63;;;16.60;65.00;;;;;;5094857;28;20729;-69
2021/04/29 00:20:14;;;;;;;3.35;2.42;;;16.60;65.10;;;;;;5088546;28;20794;-69
2021/04/29 00:22:41;;;;;;;3.15;2.70;;;16.60;65.20;;;;;;5103871;28;20193;-69
2021/04/29 00:25:08;;;;;;;4.57;2.92;;;16.60;65.30;;;;;;5107926;28;20225;-69
2021/04/29 00:27:35;;;;;;;2.70;2.50;;;16.50;65.30;;;;;;5109561;28;20197;-69
2021/04/29 00:30:01;;;;;;;2.78;2.38;;;16.50;65.40;;;;;;5100690;28;20633;-69
2021/04/29 00:32:27;;;;;;;3.13;2.33;;;16.50;65.50;;;;;;5099281;28;20211;-69
2021/04/29 00:34:53;;;;;;;2.63;2.42;;;16.50;65.50;;;;;;5111312;28;20220;-69
2021/04/29 00:37:20;;;;;;;3.67;2.78;;;16.50;65.60;;;;;;5092057;28;20262;-69
2021/04/29 00:39:47;;;;;;;2.85;2.60;;;16.50;65.80;;;;;;5092909;28;20212;-69
2021/04/29 00:42:13;;;;;;;2.30;2.10;;;16.40;65.70;;;;;;5095172;28;20636;-69
2021/04/29 00:44:39;;;;;;;3.15;2.78;;;16.40;65.70;;;;;;5098665;28;20189;-69
2021/04/29 00:47:05;;;;;;;2.13;1.92;;;16.40;65.80;;;;;;5098760;28;20193;-69
2021/04/29 00:49:32;;;;;;;2.33;2.10;;;16.40;66.00;;;;;;5096728;28;20205;-69
2021/04/29 00:51:59;;;;;;;2.20;2.00;;;16.40;66.10;;;;;;5106053;28;20284;-69
2021/04/29 00:54:26;;;;;;;3.20;2.70;;;16.40;66.20;;;;;;5094670;28;20662;-69
2021/04/29 00:56:53;;;;;;;2.30;2.10;;;16.40;66.20;;;;;;5100329;28;20588;-68
2021/04/29 00:59:20;;;;;;;2.85;2.65;;;16.40;66.30;;;;;;5098213;28;20197;-68
2021/04/29 01:01:47;;;;;;;2.80;2.20;;;16.30;66.40;;;;;;5097555;28;20201;-68
2021/04/29 01:04:19;;;;;;;2.38;1.92;;;16.30;66.40;;;;;;5110527;28;20192;-67
2021/04/29 01:06:49;;;;;;;2.42;1.95;;;16.30;66.50;;;;;;5102724;28;20605;-68
2021/04/29 01:09:21;;;;;;;2.28;1.80;;;16.30;66.50;;;;;;5102325;28;20274;-68
2021/04/29 01:11:54;;;;;;;2.13;1.92;;;16.30;66.60;;;;;;5094714;28;20201;-68
2021/04/29 01:14:22;;;;;;;2.25;2.05;;;16.30;66.70;;;;;;5109128;28;20202;-68
2021/04/29 01:16:48;;;;;;;2.30;1.90;;;16.30;66.70;;;;;;5090577;28;20232;-68
2021/04/29 01:19:17;;;;;;;2.53;1.80;;;16.30;66.70;;;;;;5095723;28;20665;-68
2021/04/29 01:21:45;;;;;;;2.10;1.90;;;16.30;67.60;;;;;;5099205;28;20197;-68
2021/04/29 01:24:16;;;;;;;2.80;2.60;;;16.30;66.80;;;;;;5114186;28;20599;-69
2021/04/29 01:26:51;;;;;;;3.30;2.38;;;16.30;66.80;;;;;;5103097;28;20189;-69
2021/04/29 01:29:20;;;;;;;2.88;1.77;;;16.20;66.80;;;;;;5093733;28;20197;-68
2021/04/29 01:31:48;;;;;;;2.13;1.92;;;16.20;66.80;;;;;;5098499;28;20621;-68
2021/04/29 01:34:18;;;;;;;2.40;2.20;;;16.20;66.80;;;;;;5100474;28;20197;-68
2021/04/29 01:36:45;;;;;;;3.90;2.58;;;16.20;66.90;;;;;;5097746;28;20233;-68
2021/04/29 01:39:13;;;;;;;3.33;2.00;;;16.20;67.00;;;;;;5094680;28;20197;-68
2021/04/29 01:41:43;;;;;;;1.73;1.63;;;16.20;67.00;;;;;;5111465;28;20204;-69
2021/04/29 01:44:11;;;;;;;2.00;1.90;;;16.20;67.10;;;;;;5095292;28;20209;-69
2021/04/29 01:46:38;;;;;;;2.88;2.10;;;16.20;67.20;;;;;;5093397;28;20739;-69
2021/04/29 01:49:06;;;;;;;3.13;2.35;;;16.20;67.30;;;;;;5090304;28;20197;-69
2021/04/29 01:51:33;;;;;;;2.47;2.03;;;16.10;67.30;;;;;;5104980;28;20196;-68
2021/04/29 01:54:01;;;;;;;2.45;1.90;;;16.20;67.40;;;;;;5107641;28;20557;-69
2021/04/29 01:56:28;;;;;;;1.65;1.55;;;16.10;67.30;;;;;;5093904;28;20228;-68
2021/04/29 01:58:54;;;;;;;1.95;1.73;;;16.10;67.40;;;;;;5103364;28;20212;-69
2021/04/29 02:01:21;;;;;;;2.13;1.80;;;16.10;67.50;;;;;;5097199;28;20197;-69
2021/04/29 02:03:48;;;;;;;2.30;2.10;;;16.10;67.60;;;;;;5103805;28;20193;-69
2021/04/29 02:06:15;;;;;;;2.10;1.90;;;16.10;67.60;;;;;;5108598;28;20206;-68
2021/04/29 02:08:41;;;;;;;2.38;2.17;;;16.10;67.70;;;;;;5092440;28;20201;-69
2021/04/29 02:11:09;;;;;;;1.75;1.63;;;16.10;67.80;;;;;;5109307;28;20201;-68
2021/04/29 02:13:37;;;;;;;2.75;2.00;;;16.10;68.60;;;;;;5099699;28;20209;-69
2021/04/29 02:16:08;;;;;;;1.80;1.70;;;16.10;67.80;;;;;;5089022;28;20214;-69
2021/04/29 02:18:36;;;;;;;2.22;1.90;;;16.10;67.90;;;;;;5103094;28;20197;-68
2021/04/29 02:21:03;;;;;;;1.60;1.50;;;16.10;67.90;;;;;;5091639;28;20628;-69
2021/04/29 02:23:29;;;;;;;2.00;1.80;;;16.10;68.00;;;;;;5096654;28;20236;-68
2021/04/29 02:25:57;;;;;;;3.20;1.65;;;16.10;68.10;;;;;;5105030;28;20194;-68
2021/04/29 02:28:25;;;;;;;1.55;1.45;;;16.00;68.10;;;;;;5089518;28;20204;-68
2021/04/29 02:30:52;;;;;;;1.92;1.83;;;16.00;68.20;;;;;;5092918;28;20246;-68
2021/04/29 02:33:19;;;;;;;2.05;1.85;;;16.00;68.20;;;;;;5101296;28;20502;-68
2021/04/29 02:35:46;;;;;;;2.03;1.60;;;16.00;68.20;;;;;;5110295;28;20224;-69
2021/04/29 02:38:15;;;;;;;2.47;2.28;;;16.00;68.30;;;;;;5095657;28;20190;-69
2021/04/29 02:40:42;;;;;;;1.98;1.80;;;16.00;68.40;;;;;;5092390;28;20246;-69
2021/04/29 02:43:11;;;;;;;1.70;1.60;;;16.00;68.50;;;;;;5092322;28;20637;-69
2021/04/29 02:45:37;;;;;;;1.67;1.58;;;16.00;68.50;;;;;;5098579;28;20258;-68
2021/04/29 02:48:04;;;;;;;2.10;1.90;;;16.00;68.60;;;;;;5103473;28;20250;-69
2021/04/29 02:50:30;;;;;;;1.75;1.65;;;16.00;68.60;;;;;;5098668;28;20706;-68
2021/04/29 02:52:58;;;;;;;1.85;1.48;;;15.90;68.60;;;;;;5096496;28;20192;-68
2021/04/29 02:55:25;;;;;;;2.10;1.90;;;15.90;68.70;;;;;;5110397;28;20300;-68
2021/04/29 02:58:00;;;;;;;1.90;1.80;;;15.90;68.80;;;;;;5104939;28;20219;-68
2021/04/29 03:00:27;;;;;;;1.90;1.70;;;15.90;69.00;;;;;;5110429;28;20192;-68
2021/04/29 03:02:54;;;;;;;2.35;1.73;;;15.90;68.90;;;;;;5097478;28;20239;-68
2021/04/29 03:05:20;;;;;;;1.77;1.67;;;15.90;69.00;;;;;;5103830;28;20515;-68
2021/04/29 03:07:46;;;;;;;1.60;1.50;;;15.90;69.10;;;;;;5105143;28;20207;-68
2021/04/29 03:10:13;;;;;;;1.88;1.60;;;15.90;69.10;;;;;;5091777;28;20208;-68
2021/04/29 03:12:40;;;;;;;2.30;2.10;;;15.90;69.20;;;;;;5092572;28;20224;-68
2021/04/29 03:15:09;;;;;;;1.83;1.38;;;15.90;69.20;;;;;;5088707;28;20911;-68
2021/04/29 03:17:35;;;;;;;1.58;1.48;;;15.80;69.10;;;;;;5087698;28;20243;-68
2021/04/29 03:20:01;;;;;;;2.30;2.10;;;15.80;69.20;;;;;;5102921;28;20197;-68
2021/04/29 03:22:28;;;;;;;1.75;1.60;;;15.80;69.30;;;;;;5109859;28;20278;-68
2021/04/29 03:24:54;;;;;;;2.05;1.85;;;15.80;69.30;;;;;;5109642;28;20565;-68
2021/04/29 03:27:23;;;;;;;2.25;2.05;;;15.80;69.40;;;;;;5089359;28;20231;-68
2021/04/29 03:29:49;;;;;;;2.15;1.92;;;15.80;69.50;;;;;;5092943;28;20201;-68
2021/04/29 03:32:16;;;;;;;2.05;1.95;;;15.80;69.50;;;;;;5092029;28;20204;-68
2021/04/29 03:34:42;;;;;;;1.95;1.75;;;15.80;69.60;;;;;;5108799;28;20192;-68
2021/04/29 03:37:08;;;;;;;2.20;2.00;;;15.80;69.70;;;;;;5100907;28;20599;-68
2021/04/29 03:39:35;;;;;;;1.70;1.50;;;15.80;69.70;;;;;;5092772;28;20198;-68
2021/04/29 03:42:01;;;;;;;1.85;1.60;;;15.80;69.80;;;;;;5094530;28;20201;-68
2021/04/29 03:44:28;;;;;;;1.60;1.40;;;15.80;69.80;;;;;;5107381;28;20199;-68
2021/04/29 03:46:54;;;;;;;2.10;1.75;;;15.80;69.90;;;;;;5098609;28;20193;-68
2021/04/29 03:49:20;;;;;;;2.17;1.75;;;15.80;69.90;;;;;;5110404;28;20196;-68
2021/04/29 03:51:47;;;;;;;2.38;1.50;;;15.80;70.00;;;;;;5108351;28;20196;-68
2021/04/29 03:54:13;;;;;;;1.80;1.42;;;15.80;70.10;;;;;;5106556;28;20197;-68
2021/04/29 03:56:39;;;;;;;1.83;1.50;;;15.80;70.10;;;;;;5089722;28;20617;-68
2021/04/29 03:59:24;;;;;;;2.13;1.92;;;15.70;70.00;;;;;;5093092;28;20228;-68
2021/04/29 04:01:51;;;;;;;2.88;1.45;;;15.70;70.20;;;;;;5091118;28;20554;-68
2021/04/29 04:04:18;;;;;;;1.65;1.50;;;15.70;70.20;;;;;;5109134;28;20205;-68
2021/04/29 04:06:44;;;;;;;1.98;1.75;;;15.70;70.60;;;;;;5094958;28;20193;-68
2021/04/29 04:09:10;;;;;;;2.10;1.90;;;15.70;70.40;;;;;;5093159;28;20774;-68
2021/04/29 04:11:36;;;;;;;1.65;1.55;;;15.70;70.50;;;;;;5095010;28;20205;-69
2021/04/29 04:14:03;;;;;;;1.83;1.50;;;15.70;70.60;;;;;;5090772;28;20530;-69
2021/04/29 04:16:29;;;;;;;2.10;1.90;;;15.70;70.70;;;;;;5097791;28;20270;-68
2021/04/29 04:18:56;;;;;;;1.70;1.60;;;15.70;70.90;;;;;;5090013;28;20353;-68
2021/04/29 04:21:23;;;;;;;1.63;1.50;;;15.60;71.00;;;;;;5101094;28;20200;-68
2021/04/29 04:23:49;;;;;;;1.83;1.45;;;15.60;71.10;;;;;;5102580;28;20235;-67
2021/04/29 04:26:15;;;;;;;2.10;1.65;;;15.60;72.10;;;;;;5103175;28;20197;-68
2021/04/29 04:28:41;;;;;;;1.83;1.73;;;15.60;71.40;;;;;;5091530;28;20201;-68
2021/04/29 04:31:08;;;;;;;3.13;1.70;;;15.60;71.50;;;;;;5095231;28;20189;-68
2021/04/29 04:33:34;;;;;;;3.05;1.80;;;15.60;71.60;;;;;;5090313;28;20584;-68
2021/04/29 04:36:01;;;;;;;2.47;1.95;;;15.60;71.70;;;;;;5090549;28;20558;-68
2021/04/29 04:38:27;;;;;;;1.40;1.30;;;15.60;71.90;;;;;;5088617;28;20278;-68
2021/04/29 04:40:54;;;;;;;1.90;1.70;;;15.60;72.00;;;;;;5086289;28;20216;-68
2021/04/29 04:43:20;;;;;;;1.75;1.42;;;15.60;72.10;;;;;;5095378;28;20687;-68
2021/04/29 04:45:46;;;;;;;1.30;1.20;;;15.60;72.20;;;;;;5098755;28;20185;-68
2021/04/29 04:48:13;;;;;;;3.97;2.00;;;15.60;72.30;;;;;;5091477;28;20287;-68
2021/04/29 04:50:39;;;;;;;1.77;1.50;;;15.60;72.50;;;;;;5099277;28;20632;-68
2021/04/29 04:53:06;;;;;;;2.00;1.80;;;15.50;72.40;;;;;;5085895;28;20209;-68
2021/04/29 04:55:34;;;;;;;1.50;1.30;;;15.50;72.50;;;;;;5087169;28;20361;-68
2021/04/29 04:58:00;;;;;;;2.70;2.03;;;15.50;72.60;;;;;;5090908;28;20262;-68
2021/04/29 05:00:26;;;;;;;1.90;1.70;;;15.50;72.70;;;;;;5097820;28;20203;-68
2021/04/29 05:02:53;;;;;;;1.95;1.63;;;15.50;72.80;;;;;;5098566;28;20205;-68
2021/04/29 05:05:19;;;;;;;1.55;1.45;;;15.50;72.90;;;;;;5109389;28;20590;-68
2021/04/29 05:07:45;;;;;;;2.45;2.25;;;15.50;73.00;;;;;;5095817;28;20198;-68
2021/04/29 05:10:12;;;;;;;2.03;1.70;;;15.50;73.10;;;;;;5088049;28;20247;-68
2021/04/29 05:12:38;;;;;;;2.22;1.80;;;15.50;73.30;;;;;;5087582;28;20744;-68
2021/04/29 05:15:06;;;;;;;3.03;2.20;;;15.50;73.40;;;;;;5090081;28;20202;-68
2021/04/29 05:17:32;;;;;;;1.73;1.63;;;15.40;73.30;;;;;;5089570;28;20214;-68
2021/04/29 05:19:59;;;;;;;2.38;1.77;;;15.40;73.50;;;;;;5091319;28;20680;-68
2021/04/29 05:22:25;;;;;;;3.30;1.48;;;15.40;73.80;;;;;;5097506;28;20594;-68
2021/04/29 05:24:51;;;;;;;2.00;1.60;;;15.40;73.90;;;;;;5109220;28;20724;-68
2021/04/29 05:27:18;;;;;;;2.35;2.15;;;15.40;74.00;;;;;;5112842;28;20189;-68
2021/04/29 05:29:44;;;;;;;2.30;2.10;;;15.40;74.00;;;;;;5112026;28;20544;-68
2021/04/29 05:32:11;;;;;;;2.35;1.67;;;15.40;74.10;;;;;;5108485;28;20197;-68
2021/04/29 05:34:37;;;;;;;1.58;1.48;;;15.40;74.20;;;;;;5101003;28;20197;-68
2021/04/29 05:37:04;;;;;;;2.10;1.80;;;15.40;74.30;;;;;;5101709;28;20220;-68
2021/04/29 05:39:30;;;;;;;2.85;2.65;;;15.40;74.40;;;;;;5094356;28;20247;-68
2021/04/29 05:41:56;;;;;;;3.53;2.45;;;15.40;74.40;;;;;;5092714;28;20197;-68
2021/04/29 05:44:23;;;;;;;3.53;3.20;;;15.40;74.60;;;;;;5093686;28;20651;-68
2021/04/29 05:46:49;;;;;;;1.98;1.77;;;15.40;74.90;;;;;;5108003;28;20196;-68
2021/04/29 05:49:16;;;;;;;1.98;1.58;;;15.40;74.80;;;;;;5103390;28;20200;-68
2021/04/29 05:51:42;;;;;;;2.10;1.92;;;15.40;74.90;;;;;;5104172;28;20251;-68
2021/04/29 05:54:08;;;;;;;2.22;2.03;;;15.40;74.90;;;;;;5100261;28;20201;-68
2021/04/29 05:56:34;;;;;;;3.90;2.30;;;15.40;75.30;;;;;;5095295;28;20285;-68
2021/04/29 05:59:00;;;;;;;3.50;3.20;;;15.40;75.90;;;;;;5102238;28;20197;-68
2021/04/29 06:01:27;;;;;;;4.78;3.78;;;15.40;76.70;;;;;;5099180;28;20310;-68
2021/04/29 06:03:53;;;;;;;5.68;5.13;;;15.40;76.80;;;;;;5102722;28;20194;-68
2021/04/29 06:06:20;;;;;;;13.88;5.55;;;15.40;77.70;;;;;;5098526;28;20204;-68
2021/04/29 06:08:46;;;;;;;5.10;4.60;;;15.40;78.60;;;;;;5101727;28;20206;-68
2021/04/29 06:11:12;;;;;;;10.02;5.43;;;15.40;77.90;;;;;;5092656;28;20576;-68
2021/04/29 06:13:39;;;;;;;5.93;5.43;;;15.50;78.30;;;;;;5098831;28;20545;-68
2021/04/29 06:16:05;;;;;;;10.10;6.60;;;15.50;78.30;;;;;;5091307;28;20697;-68
2021/04/29 06:18:32;;;;;;;8.30;5.72;;;15.50;78.30;;;;;;5092549;28;20216;-68
2021/04/29 06:20:59;;;;;;;8.50;7.25;;;15.60;78.50;;;;;;5109552;28;20552;-68
2021/04/29 06:23:25;;;;;;;9.88;7.28;;;15.60;78.30;;;;;;5097113;28;20240;-68
2021/04/29 06:25:51;;;;;;;9.32;6.90;;;15.70;78.10;;;;;;5106707;28;20230;-68
2021/04/29 06:28:17;;;;;;;8.45;7.00;;;15.80;78.00;;;;;;5111923;28;20261;-68
2021/04/29 06:30:43;;;;;;;9.38;7.32;;;15.80;78.00;;;;;;5099485;28;20197;-68
2021/04/29 06:33:10;;;;;;;8.23;7.35;;;15.80;77.90;;;;;;5102370;28;20226;-68
2021/04/29 06:35:37;;;;;;;8.38;7.43;;;15.80;77.80;;;;;;5098275;28;20279;-68
2021/04/29 06:38:03;;;;;;;10.85;7.15;;;15.80;78.60;;;;;;5095561;28;20189;-68
2021/04/29 06:40:29;;;;;;;8.65;7.07;;;15.90;77.60;;;;;;5092411;28;20189;-68
2021/04/29 06:42:55;;;;;;;9.40;8.43;;;15.90;77.40;;;;;;5099953;28;20212;-68
2021/04/29 06:45:22;;;;;;;9.68;7.78;;;16.00;77.20;;;;;;5096530;28;20204;-68
2021/04/29 06:47:49;;;;;;;8.65;7.75;;;16.00;76.90;;;;;;5096208;28;20664;-67
2021/04/29 06:50:15;;;;;;;7.10;6.40;;;16.00;76.80;;;;;;5090871;28;20197;-68
2021/04/29 06:52:43;;;;;;;9.52;7.25;;;16.00;76.80;;;;;;5092458;28;20246;-68
2021/04/29 06:55:12;;;;;;;9.00;7.53;;;16.10;76.80;;;;;;5091305;28;20208;-68
2021/04/29 06:57:38;;;;;;;7.90;7.13;;;16.20;76.50;;;;;;5090730;28;20220;-68
2021/04/29 07:00:06;;;;;;;8.52;7.70;;;16.30;76.00;;;;;;5091831;28;20262;-68
2021/04/29 07:02:32;;;;;;;9.30;7.68;;;16.50;75.30;;;;;;5100852;28;20201;-68
2021/04/29 07:04:58;;;;;;;8.60;6.72;;;16.70;74.50;;;;;;5091835;28;20259;-68
2021/04/29 07:07:24;;;;;;;11.27;8.45;;;16.80;74.00;;;;;;5101522;28;20196;-68
2021/04/29 07:09:51;;;;;;;9.05;8.10;;;17.00;73.40;;;;;;5101135;28;20208;-68
2021/04/29 07:12:17;;;;;;;10.98;7.18;;;17.10;72.80;;;;;;5094022;28;20202;-68
2021/04/29 07:14:43;;;;;;;8.02;6.90;;;17.20;72.40;;;;;;5093972;28;20209;-68
2021/04/29 07:17:10;;;;;;;11.90;7.82;;;17.30;72.00;;;;;;5097113;28;20209;-68
2021/04/29 07:19:36;;;;;;;8.38;6.95;;;17.40;71.50;;;;;;5111375;28;20218;-68
2021/04/29 07:22:02;;;;;;;8.75;6.97;;;17.50;71.20;;;;;;5117599;27;20197;-68
2021/04/29 07:24:29;;;;;;;10.32;8.25;;;17.60;70.90;;;;;;5101403;28;20240;-68
2021/04/29 07:26:56;;;;;;;12.02;7.82;;;17.60;70.30;;;;;;5107756;27;20684;-68
2021/04/29 07:29:23;;;;;;;8.82;7.35;;;17.80;70.20;;;;;;5108311;27;20205;-68
2021/04/29 07:31:49;;;;;;;10.15;6.82;;;17.80;69.70;;;;;;5092981;28;20196;-68
2021/04/29 07:34:15;;;;;;;8.80;7.53;;;17.90;69.30;;;;;;5091874;28;20612;-68
2021/04/29 07:36:41;;;;;;;8.48;7.25;;;18.00;69.20;;;;;;5091852;28;20274;-68
2021/04/29 07:39:07;;;;;;;8.02;7.15;;;18.10;68.90;;;;;;5096605;28;20192;-68
2021/04/29 07:41:33;;;;;;;10.07;7.82;;;18.10;68.50;;;;;;5094538;28;20203;-68
2021/04/29 07:44:01;;;;;;;15.52;9.25;;;18.20;68.20;;;;;;5099784;28;20189;-68
2021/04/29 07:46:28;;;;;;;10.77;7.50;;;18.30;68.10;;;;;;5110531;28;20189;-68
2021/04/29 07:48:54;;;;;;;7.78;7.07;;;18.30;67.90;;;;;;5099745;28;20197;-68
2021/04/29 07:51:20;;;;;;;11.13;7.93;;;18.40;67.80;;;;;;5104765;28;20204;-68
2021/04/29 07:53:46;;;;;;;7.63;6.93;;;18.40;67.50;;;;;;5111049;28;20628;-68
2021/04/29 07:56:12;;;;;;;8.57;7.53;;;18.50;67.20;;;;;;5106541;28;20224;-68
2021/04/29 07:58:38;;;;;;;7.75;6.95;;;18.50;67.10;;;;;;5099861;28;20208;-68
2021/04/29 08:01:05;;;;;;;9.23;7.85;;;18.60;67.00;;;;;;5092175;28;20201;-68
2021/04/29 08:03:32;;;;;;;8.63;7.80;;;18.60;66.80;;;;;;5090879;28;20577;-69
2021/04/29 08:05:58;;;;;;;11.27;7.65;;;18.70;66.50;;;;;;5105116;28;20197;-69
2021/04/29 08:08:24;;;;;;;8.80;7.90;;;18.70;66.20;;;;;;5101445;28;20192;-69
2021/04/29 08:10:50;;;;;;;9.18;7.85;;;18.70;66.20;;;;;;5113550;27;20196;-68
2021/04/29 08:13:16;;;;;;;9.50;8.50;;;18.80;66.00;;;;;;5103015;28;20200;-68
2021/04/29 08:15:43;;;;;;;10.20;8.15;;;18.80;65.80;;;;;;5099195;28;20200;-69
2021/04/29 08:18:11;;;;;;;9.05;7.97;;;18.80;65.40;;;;;;5102124;28;20234;-68
2021/04/29 08:20:39;;;;;;;7.70;7.00;;;18.90;65.40;;;;;;5096124;28;20189;-68
2021/04/29 08:23:05;;;;;;;8.10;6.35;;;18.80;65.40;;;;;;5103883;28;20687;-76
2021/04/29 08:25:31;;;;;;;12.10;7.75;;;18.80;65.20;;;;;;5092468;28;20185;-68
2021/04/29 08:27:57;;;;;;;8.73;7.72;;;18.80;65.20;;;;;;5094552;28;20696;-69
2021/04/29 08:30:27;;;;;;;8.05;7.10;;;18.90;65.30;;;;;;5102281;28;20197;-69
2021/04/29 08:32:53;;;;;;;6.97;6.32;;;18.90;65.30;;;;;;5092431;28;20212;-69
2021/04/29 08:35:21;;;;;;;6.80;5.80;;;18.90;65.10;;;;;;5094271;28;20189;-69
2021/04/29 08:37:48;;;;;;;6.95;6.35;;;18.90;65.30;;;;;;5097490;28;20217;-69
2021/04/29 08:40:14;;;;;;;8.07;7.38;;;19.00;65.10;;;;;;5098662;28;20197;-69
2021/04/29 08:42:42;;;;;;;8.20;7.10;;;19.10;65.00;;;;;;5090293;28;20200;-69
2021/04/29 08:45:09;;;;;;;13.90;8.63;;;19.10;64.60;;;;;;5090386;28;20688;-68
2021/04/29 08:47:36;;;;;;;8.93;7.30;;;19.10;64.50;;;;;;5091356;28;20655;-68
2021/04/29 08:50:03;;;;;;;8.98;7.05;;;19.10;64.70;;;;;;5091112;28;20201;-68
2021/04/29 08:52:30;;;;;;;9.73;7.03;;;19.10;64.90;;;;;;5090378;28;20755;-68
2021/04/29 08:54:57;;;;;;;11.45;8.15;;;19.10;64.90;;;;;;5090615;28;20194;-68
2021/04/29 08:57:24;;;;;;;11.57;9.80;;;19.10;64.70;;;;;;5090135;28;20214;-69
2021/04/29 08:59:52;;;;;;;12.70;8.90;;;19.00;64.60;;;;;;5091739;28;20197;-69
2021/04/29 09:02:30;;;;;;;11.48;9.40;;;19.00;64.70;;;;;;5114272;28;20513;-68
2021/04/29 09:04:56;;;;;;;11.18;8.95;;;18.90;64.90;;;;;;5105768;28;20200;-68
2021/04/29 09:07:22;;;;;;;8.38;7.57;;;18.80;65.10;;;;;;5096318;28;20209;-69
2021/04/29 09:09:50;;;;;;;10.25;8.68;;;18.80;65.20;;;;;;5095892;28;20659;-68
2021/04/29 09:12:16;;;;;;;9.00;7.88;;;18.70;65.60;;;;;;5099887;28;20811;-68
2021/04/29 09:14:43;;;;;;;10.02;8.80;;;18.70;65.60;;;;;;5097541;28;20196;-68
2021/04/29 09:17:10;;;;;;;8.77;7.88;;;18.80;65.50;;;;;;5094589;28;20216;-69
2021/04/29 09:19:47;;;;;;;11.73;9.73;;;18.80;65.60;;;;;;5102472;28;20284;-68
2021/04/29 09:22:17;;;;;;;12.02;10.82;;;18.70;65.60;;;;;;5109094;28;20590;-68
2021/04/29 09:24:43;;;;;;;10.02;8.68;;;18.70;65.80;;;;;;5093911;28;20278;-69
2021/04/29 09:27:12;;;;;;;10.52;9.63;;;18.70;65.80;;;;;;5093671;28;20653;-69
2021/04/29 09:29:49;;;;;;;10.05;9.07;;;18.70;65.60;;;;;;5102031;28;20207;-69
2021/04/29 09:32:29;;;;;;;8.40;7.60;;;18.70;65.70;;;;;;5098745;28;20262;-69
2021/04/29 09:34:56;;;;;;;11.77;8.65;;;18.60;65.80;;;;;;5093896;28;20235;-68
2021/04/29 09:37:30;;;;;;;9.95;8.93;;;18.60;65.90;;;;;;5093895;28;20225;-69
2021/04/29 09:39:57;;;;;;;13.25;11.70;;;18.50;66.00;;;;;;5102211;28;20794;-68
2021/04/29 09:42:31;;;;;;;17.77;12.75;;;18.50;66.20;;;;;;5109422;28;20212;-68
2021/04/29 09:44:58;;;;;;;14.40;11.80;;;18.40;66.40;;;;;;5101986;28;20196;-68
2021/04/29 09:47:24;;;;;;;19.65;13.75;;;18.30;66.70;;;;;;5093554;28;20235;-69
2021/04/29 09:49:51;;;;;;;12.90;11.50;;;18.30;67.00;;;;;;5092619;28;20621;-69
2021/04/29 09:52:19;;;;;;;21.45;13.75;;;18.30;67.00;;;;;;5104152;28;20269;-68
2021/04/29 09:54:46;;;;;;;17.05;15.25;;;18.30;67.00;;;;;;5113600;28;20913;-68
2021/04/29 09:57:16;;;;;;;19.50;15.40;;;18.30;67.10;;;;;;5113503;28;20253;-68
2021/04/29 09:59:46;;;;;;;15.07;12.73;;;18.20;67.20;;;;;;5110497;28;20189;-68
2021/04/29 10:02:13;;;;;;;16.70;13.90;;;18.20;67.50;;;;;;5097528;28;20198;-68
2021/04/29 10:04:41;;;;;;;15.85;12.55;;;18.20;67.60;;;;;;5112521;28;20210;-68
2021/04/29 10:07:08;;;;;;;16.13;13.63;;;18.30;67.70;;;;;;5108449;28;20203;-68
2021/04/29 10:09:35;;;;;;;13.93;12.57;;;18.30;67.60;;;;;;5100445;28;20212;-68
2021/04/29 10:12:05;;;;;;;16.75;15.02;;;18.40;67.50;;;;;;5093889;28;20197;-69
2021/04/29 10:14:33;;;;;;;13.52;12.13;;;18.40;67.20;;;;;;5104479;28;20215;-68
2021/04/29 10:17:03;;;;;;;12.20;10.93;;;18.40;66.80;;;;;;5108172;28;20259;-68
2021/04/29 10:19:32;;;;;;;13.20;11.80;;;18.40;66.60;;;;;;5102225;28;20189;-69
2021/04/29 10:22:00;;;;;;;18.80;12.70;;;18.40;66.60;;;;;;5105461;28;20193;-68
2021/04/29 10:24:26;;;;;;;11.73;10.52;;;18.40;66.90;;;;;;5092522;28;20710;-68
2021/04/29 10:27:01;;;;;;;18.40;13.77;;;18.40;67.10;;;;;;5092284;28;20223;-68
2021/04/29 10:29:28;;;;;;;14.45;11.45;;;18.40;67.10;;;;;;5091097;28;20909;-69
2021/04/29 10:31:58;;;;;;;14.00;12.73;;;18.40;67.00;;;;;;5092162;28;20200;-68
2021/04/29 10:34:35;;;;;;;15.95;12.10;;;18.50;66.90;;;;;;5091872;28;20637;-68
2021/04/29 10:37:12;;;;;;;11.80;10.65;;;18.50;66.80;;;;;;5091661;28;20213;-68
2021/04/29 10:39:51;;;;;;;11.70;10.35;;;18.40;66.70;;;;;;5091690;28;20177;-69
2021/04/29 10:42:17;;;;;;;12.93;10.73;;;18.40;66.80;;;;;;5092332;28;20624;-69
2021/04/29 10:44:45;;;;;;;15.90;11.75;;;18.40;66.70;;;;;;5093057;28;20193;-69
2021/04/29 10:47:22;;;;;;;14.60;12.05;;;18.40;66.50;;;;;;5111264;28;20185;-68
2021/04/29 10:49:50;;;;;;;13.05;11.65;;;18.40;67.00;;;;;;5100713;28;20197;-68
2021/04/29 10:52:16;;;;;;;12.85;10.50;;;18.40;66.00;;;;;;5111241;28;20205;-68
2021/04/29 10:54:49;;;;;;;13.65;11.57;;;18.40;65.90;;;;;;5112497;28;20226;-68
2021/04/29 10:57:16;;;;;;;9.20;8.27;;;18.40;65.50;;;;;;5110117;28;20225;-67
2021/04/29 10:59:44;;;;;;;10.38;9.38;;;18.40;65.10;;;;;;5101727;28;20190;-68
2021/04/29 11:02:27;;;;;;;9.70;8.80;;;18.40;65.00;;;;;;5097624;28;20194;-68
2021/04/29 11:04:55;;;;;;;11.88;10.23;;;18.30;65.10;;;;;;5094037;28;20193;-68
2021/04/29 11:07:24;;;;;;;10.07;9.05;;;18.40;65.40;;;;;;5095332;28;20535;-68
2021/04/29 11:10:01;;;;;;;9.63;8.70;;;18.40;65.30;;;;;;5090961;28;20217;-68
2021/04/29 11:12:44;;;;;;;9.90;9.00;;;18.40;65.30;;;;;;5096057;28;20197;-69
2021/04/29 11:15:25;;;;;;;11.55;8.73;;;18.40;65.00;;;;;;5102339;28;20200;-68
2021/04/29 11:18:07;;;;;;;8.43;7.55;;;18.40;65.10;;;;;;5103765;28;20668;-69
2021/04/29 11:20:48;;;;;;;8.23;7.43;;;18.40;64.50;;;;;;5094584;28;20189;-68
2021/04/29 11:23:16;;;;;;;11.85;7.07;;;18.30;64.00;;;;;;5094782;28;20233;-68
2021/04/29 11:25:42;;;;;;;8.55;7.60;;;18.40;64.30;;;;;;5090563;28;20197;-68
2021/04/29 11:28:09;;;;;;;10.75;8.77;;;18.40;64.30;;;;;;5090991;28;20197;-68
2021/04/29 11:30:37;;;;;;;11.55;8.65;;;18.40;64.20;;;;;;5091546;28;20611;-68
2021/04/29 11:33:05;;;;;;;15.48;7.57;;;18.40;64.20;;;;;;5096627;28;20324;-68
2021/04/29 11:35:34;;;;;;;7.78;6.97;;;18.40;64.30;;;;;;5093837;28;20201;-69
2021/04/29 11:38:02;;;;;;;8.40;7.60;;;18.40;64.60;;;;;;5097384;28;20221;-68
2021/04/29 11:40:30;;;;;;;9.68;8.30;;;18.40;64.60;;;;;;5090486;28;20193;-68
2021/04/29 11:42:58;;;;;;;9.57;8.57;;;18.40;64.50;;;;;;5091387;28;20206;-68
2021/04/29 11:45:26;;;;;;;9.85;7.55;;;18.40;64.40;;;;;;5090502;28;20617;-68
2021/04/29 11:47:59;;;;;;;11.30;8.48;;;18.40;64.50;;;;;;5091578;28;20198;-68
2021/04/29 11:50:27;;;;;;;9.63;8.63;;;18.30;64.50;;;;;;5100772;28;20231;-69
2021/04/29 11:53:09;;;;;;;8.93;8.23;;;18.30;64.70;;;;;;5090981;28;20262;-68
2021/04/29 11:55:37;;;;;;;16.90;9.35;;;18.30;65.00;;;;;;5101877;28;20208;-67
2021/04/29 11:58:06;;;;;;;9.40;8.40;;;18.30;65.00;;;;;;5096326;28;20281;-68
2021/04/29 12:00:34;;;;;;;12.23;9.18;;;18.30;64.80;;;;;;5094532;28;20645;-68
2021/04/29 12:03:02;;;;;;;10.10;9.07;;;18.30;64.80;;;;;;5106788;28;20204;-68
2021/04/29 12:05:32;;;;;;;8.15;7.35;;;18.20;65.00;;;;;;5098133;28;20219;-68
2021/04/29 12:07:58;;;;;;;11.52;10.32;;;18.20;65.00;;;;;;5108043;28;20246;-68
2021/04/29 12:10:25;;;;;;;8.98;8.10;;;18.20;65.00;;;;;;5102104;28;20199;-68
2021/04/29 12:12:52;;;;;;;10.48;9.40;;;18.20;64.90;;;;;;5101035;28;20192;-69
2021/04/29 12:15:18;;;;;;;16.25;9.30;;;18.20;64.80;;;;;;5099575;28;20200;-68
2021/04/29 12:17:44;;;;;;;21.02;9.00;;;18.20;64.40;;;;;;5108155;28;20228;-68
2021/04/29 12:20:12;;;;;;;10.30;7.88;;;18.20;64.40;;;;;;5103932;28;20570;-68
2021/04/29 12:22:40;;;;;;;10.52;8.05;;;18.20;64.40;;;;;;5093323;28;20199;-69
2021/04/29 12:25:08;;;;;;;12.88;8.55;;;18.20;64.30;;;;;;5110585;28;20240;-68
2021/04/29 12:27:41;;;;;;;13.70;8.40;;;18.20;64.00;;;;;;5109636;28;20321;-69
2021/04/29 12:30:09;;;;;;;10.13;7.65;;;18.20;63.70;;;;;;5090171;28;20188;-69
2021/04/29 12:32:38;;;;;;;9.10;7.47;;;18.20;63.10;;;;;;5099128;28;20688;-69
2021/04/29 12:35:05;;;;;;;9.82;7.50;;;18.20;62.90;;;;;;5102022;28;20204;-68
2021/04/29 12:37:32;;;;;;;10.57;7.10;;;18.10;63.00;;;;;;5107940;28;20225;-68
2021/04/29 12:39:58;;;;;;;23.27;8.15;;;18.10;63.10;;;;;;5105484;28;20198;-68
2021/04/29 12:42:24;;;;;;;12.50;7.63;;;18.10;63.20;;;;;;5102444;28;20193;-69
2021/04/29 12:44:58;;;;;;;8.77;6.97;;;18.10;63.80;;;;;;5093536;28;20727;-69